sensor_id;sensor_type;location;lat;lon;timestamp;P1;durP1;ratioP1;P2;durP2;ratioP2
34204;SDS011;20471;49.680;20.074;2023-04-24T06:12:09;11.10;;;8.80;;
34204;SDS011;20471;49.680;20.074;2023-04-24T06:14:36;16.50;;;9.50;;
34204;SDS011;20471;49.680;20.074;2023-04-24T06:17:03;11.70;;;8.40;;
34204;SDS011;20471;49.680;20.074;2023-04-24T06:19:29;14.80;;;9.20;;
34204;SDS011;20471;49.680;20.074;2023-04-24T06:21:56;12.90;;;8.30;;
34204;SDS011;20471;49.680;20.074;2023-04-24T06:24:26;11.00;;;7.80;;
34204;SDS011;20471;49.680;20.074;2023-04-24T06:26:54;12.90;;;7.80;;
34204;SDS011;20471;49.680;20.074;2023-04-24T06:29:20;14.90;;;8.00;;
34204;SDS011;20471;49.680;20.074;2023-04-24T06:31:50;13.40;;;8.40;;
34204;SDS011;20471;49.680;20.074;2023-04-24T06:34:17;12.50;;;8.20;;
34204;SDS011;20471;49.680;20.074;2023-04-24T06:36:43;10.80;;;7.90;;
34204;SDS011;20471;49.680;20.074;2023-04-24T06:39:10;11.30;;;7.30;;
34204;SDS011;20471;49.680;20.074;2023-04-24T06:41:38;10.20;;;7.80;;
34204;SDS011;20471;49.680;20.074;2023-04-24T06:44:05;7.80;;;6.40;;
34204;SDS011;20471;49.680;20.074;2023-04-24T06:46:32;9.40;;;6.70;;
34204;SDS011;20471;49.680;20.074;2023-04-24T06:48:59;8.70;;;6.70;;
34204;SDS011;20471;49.680;20.074;2023-04-24T06:51:27;10.10;;;6.40;;
34204;SDS011;20471;49.680;20.074;2023-04-24T06:53:54;8.20;;;6.60;;
34204;SDS011;20471;49.680;20.074;2023-04-24T06:56:22;8.90;;;6.30;;
34204;SDS011;20471;49.680;20.074;2023-04-24T06:58:49;9.70;;;6.00;;
34204;SDS011;20471;49.680;20.074;2023-04-24T07:01:15;8.00;;;5.40;;
34204;SDS011;20471;49.680;20.074;2023-04-24T07:03:42;8.50;;;6.20;;
34204;SDS011;20471;49.680;20.074;2023-04-24T07:06:09;8.30;;;5.60;;
34204;SDS011;20471;49.680;20.074;2023-04-24T07:08:36;8.80;;;5.50;;
34204;SDS011;20471;49.680;20.074;2023-04-24T07:11:03;9.00;;;5.30;;
34204;SDS011;20471;49.680;20.074;2023-04-24T07:13:31;9.80;;;5.40;;
34204;SDS011;20471;49.680;20.074;2023-04-24T07:15:58;7.80;;;5.10;;
34204;SDS011;20471;49.680;20.074;2023-04-24T07:18:24;10.80;;;4.90;;
34204;SDS011;20471;49.680;20.074;2023-04-24T07:20:51;6.50;;;4.30;;
34204;SDS011;20471;49.680;20.074;2023-04-24T07:23:19;6.30;;;4.90;;
34204;SDS011;20471;49.680;20.074;2023-04-24T07:25:46;7.60;;;4.70;;
34204;SDS011;20471;49.680;20.074;2023-04-24T07:28:13;7.80;;;5.20;;
34204;SDS011;20471;49.680;20.074;2023-04-24T07:30:40;7.40;;;4.60;;
34204;SDS011;20471;49.680;20.074;2023-04-24T07:33:06;8.70;;;4.90;;
34204;SDS011;20471;49.680;20.074;2023-04-24T07:35:33;8.20;;;4.00;;
34204;SDS011;20471;49.680;20.074;2023-04-24T07:38:01;7.50;;;4.20;;
34204;SDS011;20471;49.680;20.074;2023-04-24T07:40:27;5.70;;;3.80;;
34204;SDS011;20471;49.680;20.074;2023-04-24T07:42:54;6.90;;;3.90;;
34204;SDS011;20471;49.680;20.074;2023-04-24T07:45:21;6.90;;;4.40;;
34204;SDS011;20471;49.680;20.074;2023-04-24T07:47:49;4.10;;;3.70;;
34204;SDS011;20471;49.680;20.074;2023-04-24T07:50:17;7.50;;;4.30;;
34204;SDS011;20471;49.680;20.074;2023-04-24T07:52:43;5.10;;;4.30;;
34204;SDS011;20471;49.680;20.074;2023-04-24T07:55:10;7.60;;;3.90;;
34204;SDS011;20471;49.680;20.074;2023-04-24T07:57:37;5.80;;;4.00;;
34204;SDS011;20471;49.680;20.074;2023-04-24T08:00:06;4.80;;;3.20;;
34204;SDS011;20471;49.680;20.074;2023-04-24T08:02:35;5.00;;;3.90;;
34204;SDS011;20471;49.680;20.074;2023-04-24T08:05:01;7.90;;;4.20;;
34204;SDS011;20471;49.680;20.074;2023-04-24T08:07:29;6.80;;;4.20;;
34204;SDS011;20471;49.680;20.074;2023-04-24T08:09:55;5.90;;;4.20;;
34204;SDS011;20471;49.680;20.074;2023-04-24T08:12:22;4.60;;;3.90;;
34204;SDS011;20471;49.680;20.074;2023-04-24T08:14:49;5.30;;;4.00;;
34204;SDS011;20471;49.680;20.074;2023-04-24T08:17:16;5.20;;;3.90;;
34204;SDS011;20471;49.680;20.074;2023-04-24T08:19:43;5.40;;;3.80;;
34204;SDS011;20471;49.680;20.074;2023-04-24T08:22:14;5.90;;;3.90;;
34204;SDS011;20471;49.680;20.074;2023-04-24T08:24:41;6.10;;;4.00;;
34204;SDS011;20471;49.680;20.074;2023-04-24T08:27:09;8.20;;;4.00;;
34204;SDS011;20471;49.680;20.074;2023-04-24T08:29:36;8.00;;;3.90;;
34204;SDS011;20471;49.680;20.074;2023-04-24T08:32:04;5.20;;;3.70;;
34204;SDS011;20471;49.680;20.074;2023-04-24T08:34:31;4.20;;;3.60;;
34204;SDS011;20471;49.680;20.074;2023-04-24T08:36:57;4.30;;;3.40;;
34204;SDS011;20471;49.680;20.074;2023-04-24T08:39:24;6.80;;;3.80;;
34204;SDS011;20471;49.680;20.074;2023-04-24T08:41:51;4.40;;;3.30;;
34204;SDS011;20471;49.680;20.074;2023-04-24T08:44:19;6.00;;;3.70;;
34204;SDS011;20471;49.680;20.074;2023-04-24T08:46:47;5.10;;;3.50;;
34204;SDS011;20471;49.680;20.074;2023-04-24T08:49:15;4.90;;;3.40;;
34204;SDS011;20471;49.680;20.074;2023-04-24T08:51:42;4.90;;;3.60;;
34204;SDS011;20471;49.680;20.074;2023-04-24T08:54:11;4.30;;;3.70;;
34204;SDS011;20471;49.680;20.074;2023-04-24T08:56:40;4.70;;;3.10;;
34204;SDS011;20471;49.680;20.074;2023-04-24T08:59:09;5.50;;;3.80;;
34204;SDS011;20471;49.680;20.074;2023-04-24T09:01:37;5.60;;;3.40;;
34204;SDS011;20471;49.680;20.074;2023-04-24T09:04:05;4.10;;;3.30;;
34204;SDS011;20471;49.680;20.074;2023-04-24T09:06:34;4.30;;;3.00;;
34204;SDS011;20471;49.680;20.074;2023-04-24T09:09:02;6.20;;;3.30;;
34204;SDS011;20471;49.680;20.074;2023-04-24T09:11:30;5.30;;;3.40;;
34204;SDS011;20471;49.680;20.074;2023-04-24T09:13:57;8.40;;;3.30;;
34204;SDS011;20471;49.680;20.074;2023-04-24T09:16:25;6.70;;;3.40;;
34204;SDS011;20471;49.680;20.074;2023-04-24T09:18:52;6.40;;;3.70;;
34204;SDS011;20471;49.680;20.074;2023-04-24T09:21:20;6.10;;;4.50;;
34204;SDS011;20471;49.680;20.074;2023-04-24T09:24:05;4.50;;;3.10;;
34204;SDS011;20471;49.680;20.074;2023-04-24T09:26:36;5.00;;;3.20;;
34204;SDS011;20471;49.680;20.074;2023-04-24T09:29:03;3.90;;;3.30;;
34204;SDS011;20471;49.680;20.074;2023-04-24T09:31:30;5.20;;;3.30;;
34204;SDS011;20471;49.680;20.074;2023-04-24T09:34:01;5.80;;;3.60;;
34204;SDS011;20471;49.680;20.074;2023-04-24T09:36:32;3.60;;;3.20;;
34204;SDS011;20471;49.680;20.074;2023-04-24T09:39:03;6.80;;;3.30;;
34204;SDS011;20471;49.680;20.074;2023-04-24T09:41:35;5.90;;;3.50;;
34204;SDS011;20471;49.680;20.074;2023-04-24T09:44:18;5.70;;;3.30;;
34204;SDS011;20471;49.680;20.074;2023-04-24T09:46:56;4.60;;;3.50;;
34204;SDS011;20471;49.680;20.074;2023-04-24T09:49:27;6.40;;;3.50;;
34204;SDS011;20471;49.680;20.074;2023-04-24T09:52:02;4.60;;;3.70;;
34204;SDS011;20471;49.680;20.074;2023-04-24T09:54:31;5.70;;;3.90;;
34204;SDS011;20471;49.680;20.074;2023-04-24T09:56:57;7.70;;;3.90;;
34204;SDS011;20471;49.680;20.074;2023-04-24T09:59:25;4.70;;;3.00;;
34204;SDS011;20471;49.680;20.074;2023-04-24T10:01:52;4.00;;;3.50;;
34204;SDS011;20471;49.680;20.074;2023-04-24T10:04:20;4.00;;;3.60;;
34204;SDS011;20471;49.680;20.074;2023-04-24T10:06:49;7.20;;;3.60;;
34204;SDS011;20471;49.680;20.074;2023-04-24T10:09:18;5.20;;;3.60;;
34204;SDS011;20471;49.680;20.074;2023-04-24T10:11:46;3.80;;;3.30;;
34204;SDS011;20471;49.680;20.074;2023-04-24T10:14:15;3.70;;;3.20;;
34204;SDS011;20471;49.680;20.074;2023-04-24T10:16:46;5.60;;;3.40;;
34204;SDS011;20471;49.680;20.074;2023-04-24T10:19:14;6.40;;;3.40;;
34204;SDS011;20471;49.680;20.074;2023-04-24T10:21:42;4.30;;;3.70;;
34204;SDS011;20471;49.680;20.074;2023-04-24T10:24:14;5.10;;;3.50;;
34204;SDS011;20471;49.680;20.074;2023-04-24T10:26:46;7.70;;;3.60;;
34204;SDS011;20471;49.680;20.074;2023-04-24T10:29:14;8.90;;;3.60;;
34204;SDS011;20471;49.680;20.074;2023-04-24T10:31:43;3.70;;;3.10;;
34204;SDS011;20471;49.680;20.074;2023-04-24T10:34:11;3.90;;;3.50;;
34204;SDS011;20471;49.680;20.074;2023-04-24T10:36:41;5.40;;;3.40;;
34204;SDS011;20471;49.680;20.074;2023-04-24T10:39:12;3.50;;;3.20;;
34204;SDS011;20471;49.680;20.074;2023-04-24T10:41:41;5.60;;;3.80;;
34204;SDS011;20471;49.680;20.074;2023-04-24T10:44:14;5.40;;;3.60;;
34204;SDS011;20471;49.680;20.074;2023-04-24T10:46:43;4.00;;;3.50;;
34204;SDS011;20471;49.680;20.074;2023-04-24T10:49:11;4.80;;;3.40;;
34204;SDS011;20471;49.680;20.074;2023-04-24T10:51:45;7.30;;;3.90;;
34204;SDS011;20471;49.680;20.074;2023-04-24T10:54:23;10.80;;;3.80;;
34204;SDS011;20471;49.680;20.074;2023-04-24T10:56:51;6.70;;;3.90;;
34204;SDS011;20471;49.680;20.074;2023-04-24T10:59:25;6.10;;;3.40;;
34204;SDS011;20471;49.680;20.074;2023-04-24T11:01:54;4.10;;;3.70;;
34204;SDS011;20471;49.680;20.074;2023-04-24T11:04:31;7.10;;;3.80;;
34204;SDS011;20471;49.680;20.074;2023-04-24T11:06:59;8.80;;;3.90;;
34204;SDS011;20471;49.680;20.074;2023-04-24T11:09:26;5.10;;;3.40;;
34204;SDS011;20471;49.680;20.074;2023-04-24T11:12:04;5.20;;;3.70;;
34204;SDS011;20471;49.680;20.074;2023-04-24T11:20:16;5.00;;;3.40;;
34204;SDS011;20471;49.680;20.074;2023-04-24T11:22:44;6.20;;;3.50;;
34204;SDS011;20471;49.680;20.074;2023-04-24T11:25:11;4.90;;;3.70;;
34204;SDS011;20471;49.680;20.074;2023-04-24T11:27:39;4.80;;;3.60;;
34204;SDS011;20471;49.680;20.074;2023-04-24T11:30:07;4.80;;;3.50;;
34204;SDS011;20471;49.680;20.074;2023-04-24T11:32:37;6.10;;;4.00;;
34204;SDS011;20471;49.680;20.074;2023-04-24T11:35:06;4.10;;;3.60;;
34204;SDS011;20471;49.680;20.074;2023-04-24T11:37:36;7.10;;;3.90;;
34204;SDS011;20471;49.680;20.074;2023-04-24T11:40:07;6.90;;;3.80;;
34204;SDS011;20471;49.680;20.074;2023-04-24T11:42:37;11.20;;;4.10;;
34204;SDS011;20471;49.680;20.074;2023-04-24T11:45:09;5.30;;;4.00;;
34204;SDS011;20471;49.680;20.074;2023-04-24T11:47:36;8.70;;;4.30;;
34204;SDS011;20471;49.680;20.074;2023-04-24T11:50:05;6.60;;;4.30;;
34204;SDS011;20471;49.680;20.074;2023-04-24T11:52:33;8.50;;;4.70;;
34204;SDS011;20471;49.680;20.074;2023-04-24T11:55:03;5.60;;;4.50;;
34204;SDS011;20471;49.680;20.074;2023-04-24T11:57:32;8.00;;;4.30;;
34204;SDS011;20471;49.680;20.074;2023-04-24T12:00:00;10.20;;;6.30;;
34204;SDS011;20471;49.680;20.074;2023-04-24T12:02:28;10.30;;;6.60;;
34204;SDS011;20471;49.680;20.074;2023-04-24T12:04:55;10.90;;;6.20;;
34204;SDS011;20471;49.680;20.074;2023-04-24T12:07:22;11.70;;;8.70;;
34204;SDS011;20471;49.680;20.074;2023-04-24T12:09:55;7.30;;;5.80;;
34204;SDS011;20471;49.680;20.074;2023-04-24T12:12:24;20.20;;;13.30;;
34204;SDS011;20471;49.680;20.074;2023-04-24T12:14:54;14.20;;;9.50;;
34204;SDS011;20471;49.680;20.074;2023-04-24T12:17:41;14.10;;;11.20;;
34204;SDS011;20471;49.680;20.074;2023-04-24T12:20:08;43.90;;;33.00;;
34204;SDS011;20471;49.680;20.074;2023-04-24T12:25:30;12.80;;;8.70;;
34204;SDS011;20471;49.680;20.074;2023-04-24T12:30:34;38.90;;;25.00;;
34204;SDS011;20471;49.680;20.074;2023-04-24T12:33:05;12.90;;;8.30;;
34204;SDS011;20471;49.680;20.074;2023-04-24T12:35:32;12.10;;;7.70;;
34204;SDS011;20471;49.680;20.074;2023-04-24T12:38:08;8.40;;;6.90;;
34204;SDS011;20471;49.680;20.074;2023-04-24T12:40:36;10.60;;;6.60;;
34204;SDS011;20471;49.680;20.074;2023-04-24T12:43:12;10.70;;;5.80;;
34204;SDS011;20471;49.680;20.074;2023-04-24T12:45:43;6.60;;;5.70;;
34204;SDS011;20471;49.680;20.074;2023-04-24T12:48:11;8.60;;;5.80;;
34204;SDS011;20471;49.680;20.074;2023-04-24T12:50:39;8.40;;;5.90;;
34204;SDS011;20471;49.680;20.074;2023-04-24T12:53:07;10.20;;;5.40;;
34204;SDS011;20471;49.680;20.074;2023-04-24T12:55:34;7.30;;;4.90;;
34204;SDS011;20471;49.680;20.074;2023-04-24T12:58:02;6.90;;;5.00;;
34204;SDS011;20471;49.680;20.074;2023-04-24T13:00:29;8.30;;;4.70;;
34204;SDS011;20471;49.680;20.074;2023-04-24T13:02:56;8.00;;;5.00;;
34204;SDS011;20471;49.680;20.074;2023-04-24T13:05:23;13.20;;;5.40;;
34204;SDS011;20471;49.680;20.074;2023-04-24T13:07:50;6.80;;;5.60;;
34204;SDS011;20471;49.680;20.074;2023-04-24T13:10:17;8.20;;;5.30;;
34204;SDS011;20471;49.680;20.074;2023-04-24T13:12:44;6.80;;;4.40;;
34204;SDS011;20471;49.680;20.074;2023-04-24T13:15:12;6.10;;;4.60;;
34204;SDS011;20471;49.680;20.074;2023-04-24T13:17:39;8.90;;;4.70;;
34204;SDS011;20471;49.680;20.074;2023-04-24T13:20:06;9.10;;;5.20;;
34204;SDS011;20471;49.680;20.074;2023-04-24T13:22:33;4.60;;;4.10;;
34204;SDS011;20471;49.680;20.074;2023-04-24T13:25:00;5.70;;;4.50;;
34204;SDS011;20471;49.680;20.074;2023-04-24T13:27:27;5.90;;;4.20;;
34204;SDS011;20471;49.680;20.074;2023-04-24T13:29:54;5.00;;;4.00;;
34204;SDS011;20471;49.680;20.074;2023-04-24T13:32:20;5.70;;;4.30;;
34204;SDS011;20471;49.680;20.074;2023-04-24T13:34:47;4.60;;;3.80;;
34204;SDS011;20471;49.680;20.074;2023-04-24T13:37:14;4.50;;;4.00;;
34204;SDS011;20471;49.680;20.074;2023-04-24T13:39:41;4.10;;;3.60;;
34204;SDS011;20471;49.680;20.074;2023-04-24T13:42:08;7.00;;;3.60;;
34204;SDS011;20471;49.680;20.074;2023-04-24T13:44:35;3.90;;;3.30;;
34204;SDS011;20471;49.680;20.074;2023-04-24T13:47:02;4.60;;;3.60;;
34204;SDS011;20471;49.680;20.074;2023-04-24T13:49:29;3.90;;;3.10;;
34204;SDS011;20471;49.680;20.074;2023-04-24T13:51:55;3.20;;;2.90;;
34204;SDS011;20471;49.680;20.074;2023-04-24T13:54:23;3.60;;;2.90;;
34204;SDS011;20471;49.680;20.074;2023-04-24T13:56:51;3.00;;;2.80;;
34204;SDS011;20471;49.680;20.074;2023-04-24T13:59:19;3.10;;;2.80;;
34204;SDS011;20471;49.680;20.074;2023-04-24T14:01:47;4.00;;;2.80;;
34204;SDS011;20471;49.680;20.074;2023-04-24T14:04:14;5.00;;;3.20;;
34204;SDS011;20471;49.680;20.074;2023-04-24T14:06:41;4.20;;;2.80;;
34204;SDS011;20471;49.680;20.074;2023-04-24T14:09:07;2.80;;;2.60;;
34204;SDS011;20471;49.680;20.074;2023-04-24T14:11:34;3.40;;;3.00;;
34204;SDS011;20471;49.680;20.074;2023-04-24T14:14:01;3.20;;;2.90;;
34204;SDS011;20471;49.680;20.074;2023-04-24T14:16:29;3.40;;;3.10;;
34204;SDS011;20471;49.680;20.074;2023-04-24T14:18:56;4.60;;;2.90;;
34204;SDS011;20471;49.680;20.074;2023-04-24T14:21:23;5.60;;;3.70;;
34204;SDS011;20471;49.680;20.074;2023-04-24T14:23:49;3.70;;;3.40;;
34204;SDS011;20471;49.680;20.074;2023-04-24T14:26:16;3.80;;;3.20;;
34204;SDS011;20471;49.680;20.074;2023-04-24T14:28:43;4.50;;;4.00;;
34204;SDS011;20471;49.680;20.074;2023-04-24T14:31:10;4.90;;;4.40;;
34204;SDS011;20471;49.680;20.074;2023-04-24T14:33:37;6.80;;;4.60;;
34204;SDS011;20471;49.680;20.074;2023-04-24T14:36:04;5.10;;;4.60;;
34204;SDS011;20471;49.680;20.074;2023-04-24T14:38:31;7.00;;;4.80;;
34204;SDS011;20471;49.680;20.074;2023-04-24T14:40:58;8.00;;;4.90;;
34204;SDS011;20471;49.680;20.074;2023-04-24T14:43:25;6.50;;;5.30;;
34204;SDS011;20471;49.680;20.074;2023-04-24T14:45:52;6.20;;;4.90;;
34204;SDS011;20471;49.680;20.074;2023-04-24T14:48:19;6.20;;;5.50;;
34204;SDS011;20471;49.680;20.074;2023-04-24T14:50:45;6.50;;;5.70;;
34204;SDS011;20471;49.680;20.074;2023-04-24T14:53:14;7.70;;;6.70;;
34204;SDS011;20471;49.680;20.074;2023-04-24T14:55:41;8.70;;;5.90;;
34204;SDS011;20471;49.680;20.074;2023-04-24T14:58:07;6.60;;;6.00;;
34204;SDS011;20471;49.680;20.074;2023-04-24T15:00:34;7.00;;;6.00;;
34204;SDS011;20471;49.680;20.074;2023-04-24T15:03:01;10.10;;;6.00;;
34204;SDS011;20471;49.680;20.074;2023-04-24T15:05:28;7.90;;;6.20;;
34204;SDS011;20471;49.680;20.074;2023-04-24T15:07:56;12.70;;;7.10;;
34204;SDS011;20471;49.680;20.074;2023-04-24T15:10:22;7.70;;;6.20;;
34204;SDS011;20471;49.680;20.074;2023-04-24T15:12:51;7.10;;;6.40;;
34204;SDS011;20471;49.680;20.074;2023-04-24T15:15:18;6.50;;;4.90;;
34204;SDS011;20471;49.680;20.074;2023-04-24T15:17:44;5.00;;;4.60;;
34204;SDS011;20471;49.680;20.074;2023-04-24T15:20:14;5.20;;;4.70;;
34204;SDS011;20471;49.680;20.074;2023-04-24T15:22:41;5.70;;;4.40;;
34204;SDS011;20471;49.680;20.074;2023-04-24T15:25:08;4.60;;;4.20;;
34204;SDS011;20471;49.680;20.074;2023-04-24T15:27:41;5.10;;;4.70;;
34204;SDS011;20471;49.680;20.074;2023-04-24T15:30:12;6.00;;;5.00;;
34204;SDS011;20471;49.680;20.074;2023-04-24T15:32:39;5.10;;;4.60;;
34204;SDS011;20471;49.680;20.074;2023-04-24T15:35:06;4.50;;;4.20;;
34204;SDS011;20471;49.680;20.074;2023-04-24T15:37:34;6.10;;;5.20;;
34204;SDS011;20471;49.680;20.074;2023-04-24T15:40:01;6.50;;;5.50;;
34204;SDS011;20471;49.680;20.074;2023-04-24T15:42:30;7.40;;;5.90;;
34204;SDS011;20471;49.680;20.074;2023-04-24T15:44:56;5.80;;;5.20;;
34204;SDS011;20471;49.680;20.074;2023-04-24T15:47:24;7.10;;;5.80;;
34204;SDS011;20471;49.680;20.074;2023-04-24T15:49:51;10.60;;;8.20;;
34204;SDS011;20471;49.680;20.074;2023-04-24T15:52:19;12.60;;;9.20;;
34204;SDS011;20471;49.680;20.074;2023-04-24T15:54:46;28.20;;;15.30;;
34204;SDS011;20471;49.680;20.074;2023-04-24T15:57:14;32.00;;;16.70;;
34204;SDS011;20471;49.680;20.074;2023-04-24T15:59:41;22.10;;;13.30;;
34204;SDS011;20471;49.680;20.074;2023-04-24T16:02:08;13.20;;;8.50;;
34204;SDS011;20471;49.680;20.074;2023-04-24T16:04:37;15.00;;;10.10;;
34204;SDS011;20471;49.680;20.074;2023-04-24T16:07:04;12.50;;;8.90;;
34204;SDS011;20471;49.680;20.074;2023-04-24T16:09:31;12.30;;;7.80;;
34204;SDS011;20471;49.680;20.074;2023-04-24T16:11:58;11.70;;;7.60;;
34204;SDS011;20471;49.680;20.074;2023-04-24T16:14:25;20.70;;;12.00;;
34204;SDS011;20471;49.680;20.074;2023-04-24T16:16:52;28.80;;;17.40;;
34204;SDS011;20471;49.680;20.074;2023-04-24T16:19:20;28.50;;;18.20;;
34204;SDS011;20471;49.680;20.074;2023-04-24T16:21:47;27.90;;;16.40;;
34204;SDS011;20471;49.680;20.074;2023-04-24T16:24:14;25.00;;;15.80;;
34204;SDS011;20471;49.680;20.074;2023-04-24T16:26:42;16.90;;;10.40;;
34204;SDS011;20471;49.680;20.074;2023-04-24T16:29:08;15.80;;;10.70;;
34204;SDS011;20471;49.680;20.074;2023-04-24T16:31:35;15.90;;;11.80;;
34204;SDS011;20471;49.680;20.074;2023-04-24T16:34:02;16.20;;;12.60;;
34204;SDS011;20471;49.680;20.074;2023-04-24T16:36:29;13.60;;;10.10;;
34204;SDS011;20471;49.680;20.074;2023-04-24T16:38:56;10.70;;;8.30;;
34204;SDS011;20471;49.680;20.074;2023-04-24T16:41:26;9.00;;;7.90;;
34204;SDS011;20471;49.680;20.074;2023-04-24T16:43:54;8.50;;;7.50;;
34204;SDS011;20471;49.680;20.074;2023-04-24T16:46:21;10.00;;;8.30;;
34204;SDS011;20471;49.680;20.074;2023-04-24T16:48:48;9.00;;;6.40;;
34204;SDS011;20471;49.680;20.074;2023-04-24T16:51:15;9.40;;;6.40;;
34204;SDS011;20471;49.680;20.074;2023-04-24T16:53:42;9.60;;;7.60;;
34204;SDS011;20471;49.680;20.074;2023-04-24T16:56:09;8.50;;;7.70;;
34204;SDS011;20471;49.680;20.074;2023-04-24T16:58:37;8.40;;;7.50;;
34204;SDS011;20471;49.680;20.074;2023-04-24T17:01:05;12.80;;;10.80;;
34204;SDS011;20471;49.680;20.074;2023-04-24T17:03:31;13.60;;;10.50;;
34204;SDS011;20471;49.680;20.074;2023-04-24T17:05:59;14.80;;;11.20;;
34204;SDS011;20471;49.680;20.074;2023-04-24T17:08:26;15.40;;;10.50;;
34204;SDS011;20471;49.680;20.074;2023-04-24T17:10:55;12.30;;;11.00;;
34204;SDS011;20471;49.680;20.074;2023-04-24T17:13:21;13.80;;;11.90;;
34204;SDS011;20471;49.680;20.074;2023-04-24T17:15:48;14.70;;;11.50;;
34204;SDS011;20471;49.680;20.074;2023-04-24T17:18:15;15.00;;;10.90;;
34204;SDS011;20471;49.680;20.074;2023-04-24T17:23:19;12.30;;;10.10;;
34204;SDS011;20471;49.680;20.074;2023-04-24T17:25:47;11.90;;;9.40;;
34204;SDS011;20471;49.680;20.074;2023-04-24T17:28:26;14.50;;;10.50;;
34204;SDS011;20471;49.680;20.074;2023-04-24T17:30:56;16.00;;;11.30;;
34204;SDS011;20471;49.680;20.074;2023-04-24T17:33:29;15.80;;;12.40;;
34204;SDS011;20471;49.680;20.074;2023-04-24T17:35:57;15.90;;;12.50;;
34204;SDS011;20471;49.680;20.074;2023-04-24T17:38:26;17.60;;;13.30;;
34204;SDS011;20471;49.680;20.074;2023-04-24T17:40:55;23.80;;;14.90;;
34204;SDS011;20471;49.680;20.074;2023-04-24T17:43:23;17.20;;;13.50;;
34204;SDS011;20471;49.680;20.074;2023-04-24T17:45:51;17.80;;;14.60;;
34204;SDS011;20471;49.680;20.074;2023-04-24T17:48:23;18.20;;;14.10;;
34204;SDS011;20471;49.680;20.074;2023-04-24T17:50:52;16.90;;;14.30;;
34204;SDS011;20471;49.680;20.074;2023-04-24T17:53:19;17.80;;;12.60;;
34204;SDS011;20471;49.680;20.074;2023-04-24T17:55:47;17.10;;;13.60;;
34204;SDS011;20471;49.680;20.074;2023-04-24T17:58:16;18.70;;;15.20;;
34204;SDS011;20471;49.680;20.074;2023-04-24T18:00:45;32.50;;;25.10;;
34204;SDS011;20471;49.680;20.074;2023-04-24T18:03:13;107.30;;;73.80;;
34204;SDS011;20471;49.680;20.074;2023-04-24T18:05:40;121.40;;;87.10;;
34204;SDS011;20471;49.680;20.074;2023-04-24T18:08:07;47.80;;;36.80;;
34204;SDS011;20471;49.680;20.074;2023-04-24T18:10:35;41.60;;;33.20;;
34204;SDS011;20471;49.680;20.074;2023-04-24T18:13:02;30.70;;;24.70;;
34204;SDS011;20471;49.680;20.074;2023-04-24T18:15:30;25.20;;;20.10;;
34204;SDS011;20471;49.680;20.074;2023-04-24T18:17:58;28.00;;;19.50;;
34204;SDS011;20471;49.680;20.074;2023-04-24T18:20:26;31.60;;;21.50;;
34204;SDS011;20471;49.680;20.074;2023-04-24T18:22:53;35.90;;;23.40;;
34204;SDS011;20471;49.680;20.074;2023-04-24T18:25:20;43.40;;;27.00;;
34204;SDS011;20471;49.680;20.074;2023-04-24T18:27:52;50.70;;;26.60;;
34204;SDS011;20471;49.680;20.074;2023-04-24T18:30:19;95.70;;;53.20;;
34204;SDS011;20471;49.680;20.074;2023-04-24T18:32:48;104.30;;;55.60;;
34204;SDS011;20471;49.680;20.074;2023-04-24T18:35:21;92.50;;;50.00;;
34204;SDS011;20471;49.680;20.074;2023-04-24T18:37:50;71.40;;;38.70;;
34204;SDS011;20471;49.680;20.074;2023-04-24T18:40:38;38.30;;;22.80;;
34204;SDS011;20471;49.680;20.074;2023-04-24T18:43:06;24.40;;;16.40;;
34204;SDS011;20471;49.680;20.074;2023-04-24T18:45:34;23.60;;;15.20;;
34204;SDS011;20471;49.680;20.074;2023-04-24T18:48:01;28.40;;;16.40;;
34204;SDS011;20471;49.680;20.074;2023-04-24T18:50:31;38.40;;;20.30;;
34204;SDS011;20471;49.680;20.074;2023-04-24T18:52:59;27.30;;;17.00;;
34204;SDS011;20471;49.680;20.074;2023-04-24T18:55:27;38.30;;;21.30;;
34204;SDS011;20471;49.680;20.074;2023-04-24T18:57:55;47.00;;;26.10;;
34204;SDS011;20471;49.680;20.074;2023-04-24T19:00:23;49.30;;;25.90;;
34204;SDS011;20471;49.680;20.074;2023-04-24T19:02:51;46.30;;;26.00;;
34204;SDS011;20471;49.680;20.074;2023-04-24T19:05:20;39.00;;;28.20;;
34204;SDS011;20471;49.680;20.074;2023-04-24T19:07:47;39.20;;;26.40;;
34204;SDS011;20471;49.680;20.074;2023-04-24T19:10:15;39.40;;;25.60;;
34204;SDS011;20471;49.680;20.074;2023-04-24T19:12:42;39.10;;;24.20;;
34204;SDS011;20471;49.680;20.074;2023-04-24T19:15:10;34.70;;;22.10;;
34204;SDS011;20471;49.680;20.074;2023-04-24T19:17:38;34.20;;;22.80;;
34204;SDS011;20471;49.680;20.074;2023-04-24T19:20:05;36.00;;;23.20;;
34204;SDS011;20471;49.680;20.074;2023-04-24T19:22:34;40.20;;;27.20;;
34204;SDS011;20471;49.680;20.074;2023-04-24T19:25:02;45.70;;;29.50;;
34204;SDS011;20471;49.680;20.074;2023-04-24T19:27:33;39.50;;;26.50;;
34204;SDS011;20471;49.680;20.074;2023-04-24T19:30:00;38.20;;;23.00;;
34204;SDS011;20471;49.680;20.074;2023-04-24T19:32:30;30.40;;;19.40;;
34204;SDS011;20471;49.680;20.074;2023-04-24T19:34:58;35.70;;;21.10;;
34204;SDS011;20471;49.680;20.074;2023-04-24T19:37:26;27.80;;;17.70;;
34204;SDS011;20471;49.680;20.074;2023-04-24T19:39:57;36.40;;;20.00;;
34204;SDS011;20471;49.680;20.074;2023-04-24T19:42:24;35.30;;;21.00;;
34204;SDS011;20471;49.680;20.074;2023-04-24T19:44:52;36.00;;;21.60;;
34204;SDS011;20471;49.680;20.074;2023-04-24T19:47:20;36.30;;;21.50;;
34204;SDS011;20471;49.680;20.074;2023-04-24T19:49:47;38.00;;;22.40;;
34204;SDS011;20471;49.680;20.074;2023-04-24T19:52:14;41.40;;;23.30;;
34204;SDS011;20471;49.680;20.074;2023-04-24T19:54:42;35.40;;;23.10;;
34204;SDS011;20471;49.680;20.074;2023-04-24T19:57:09;38.80;;;24.00;;
34204;SDS011;20471;49.680;20.074;2023-04-24T19:59:36;40.00;;;25.70;;
34204;SDS011;20471;49.680;20.074;2023-04-24T20:02:05;44.90;;;28.70;;
34204;SDS011;20471;49.680;20.074;2023-04-24T20:04:31;49.00;;;33.50;;
34204;SDS011;20471;49.680;20.074;2023-04-24T20:06:58;49.80;;;34.40;;
34204;SDS011;20471;49.680;20.074;2023-04-24T20:09:25;37.40;;;26.20;;
34204;SDS011;20471;49.680;20.074;2023-04-24T20:11:52;34.90;;;22.90;;
34204;SDS011;20471;49.680;20.074;2023-04-24T20:14:19;30.30;;;20.00;;
34204;SDS011;20471;49.680;20.074;2023-04-24T20:16:47;29.70;;;21.10;;
34204;SDS011;20471;49.680;20.074;2023-04-24T20:19:14;33.20;;;22.10;;
34204;SDS011;20471;49.680;20.074;2023-04-24T20:21:40;29.80;;;20.20;;
34204;SDS011;20471;49.680;20.074;2023-04-24T20:24:08;32.90;;;22.60;;
34204;SDS011;20471;49.680;20.074;2023-04-24T20:26:36;31.40;;;21.60;;
34204;SDS011;20471;49.680;20.074;2023-04-24T20:29:03;32.80;;;23.20;;
34204;SDS011;20471;49.680;20.074;2023-04-24T20:31:31;33.10;;;24.40;;
34204;SDS011;20471;49.680;20.074;2023-04-24T20:33:58;33.20;;;22.20;;
34204;SDS011;20471;49.680;20.074;2023-04-24T20:36:25;33.90;;;22.60;;
34204;SDS011;20471;49.680;20.074;2023-04-24T20:38:52;32.00;;;23.10;;
34204;SDS011;20471;49.680;20.074;2023-04-24T20:41:19;33.20;;;22.40;;
34204;SDS011;20471;49.680;20.074;2023-04-24T20:43:46;33.70;;;22.90;;
34204;SDS011;20471;49.680;20.074;2023-04-24T20:46:13;37.90;;;24.10;;
34204;SDS011;20471;49.680;20.074;2023-04-24T20:48:39;33.90;;;24.10;;
34204;SDS011;20471;49.680;20.074;2023-04-24T20:51:06;30.90;;;22.20;;
34204;SDS011;20471;49.680;20.074;2023-04-24T20:53:33;25.60;;;20.10;;